Terminal Aerodrome Forecast
Issued by NWS

Home | Current Version | Previous Version | Text Only | Print | Product List | Glossary On
Versions: 1 2 3 4 5 6 7 8 9 10 11 12 13 14 15 16 17 18 19 20 21 22 23 24 25 26 27 28 29 30 31 32 33 34 35 36 37 38 39 40
000
FTUS44 KEWX 270713 AAB
TAFSSF
TAF AMD
KSSF 270713Z 2707/2806 02010KT P6SM BKN018
     FM270900 01010KT P6SM OVC012
     FM272000 36009KT P6SM BKN035 OVC120
     FM280300 34006KT P6SM FEW040 BKN150=

USA.gov is the U.S. government's official web portal to all federal, state and local government web resources and services.